Time;durP1;ratioP1;P1;durP2;ratioP2;P2;SDS_P1;SDS_P2;PMS_P1;PMS_P2;Temp;Humidity;BMP_temperature;BMP_pressure;BME280_temperature;BME280_humidity;BME280_pressure;Samples;Min_cycle;Max_cycle;Signal;HPM_P1;HPM_P2
2022/06/03 00:00:43;;;;;;;;;;;;;;;7.79;100.00;101633.69;5081877;28;19928;-84
2022/06/03 00:03:34;;;;;;;;;;;;;;;7.81;100.00;101628.84;5071019;28;19925;-84
2022/06/03 00:06:21;;;;;;;;;;;;;;;7.81;100.00;101622.63;5067514;28;19924;-84
2022/06/03 00:09:03;;;;;;;;;;;;;;;7.76;100.00;101620.63;5084811;28;19939;-85
2022/06/03 00:11:50;;;;;;;;;;;;;;;7.73;100.00;101620.28;5069328;28;20487;-85
2022/06/03 00:14:39;;;;;;;;;;;;;;;7.65;100.00;101619.56;5083478;28;19924;-85
2022/06/03 00:17:22;;;;;;;;;;;;;;;7.60;100.00;101624.88;5092000;28;20303;-84
2022/06/03 00:20:01;;;;;;;;;;;;;;;7.57;100.00;101625.34;5075033;28;19936;-83
2022/06/03 00:22:44;;;;;;;;;;;;;;;7.55;100.00;101622.03;5070492;28;19924;-84
2022/06/03 00:25:29;;;;;;;;;;;;;;;7.53;100.00;101632.31;5073869;28;19924;-85
2022/06/03 00:28:11;;;;;;;;;;;;;;;7.58;100.00;101631.59;5073200;28;19939;-84
2022/06/03 00:30:49;;;;;;;;;;;;;;;7.48;100.00;101627.59;5065507;28;19928;-84
2022/06/03 00:33:25;;;;;;;;;;;;;;;7.49;100.00;101633.84;5073785;28;19924;-84
2022/06/03 00:36:04;;;;;;;;;;;;;;;7.48;100.00;101638.44;5058233;28;19928;-84
2022/06/03 00:38:45;;;;;;;;;;;;;;;7.55;100.00;101637.47;5091956;28;19935;-84
2022/06/03 00:41:20;;;;;;;;;;;;;;;7.54;100.00;101635.81;5063828;28;19929;-84
2022/06/03 00:44:00;;;;;;;;;;;;;;;7.55;100.00;101635.59;5079217;28;19994;-84
2022/06/03 00:46:41;;;;;;;;;;;;;;;7.53;100.00;101635.00;5059151;28;19940;-84
2022/06/03 00:49:18;;;;;;;;;;;;;;;7.57;100.00;101633.47;5062905;28;19924;-83
2022/06/03 00:52:03;;;;;;;;;;;;;;;7.55;100.00;101626.66;5068881;28;19931;-84
2022/06/03 00:54:45;;;;;;;;;;;;;;;7.47;100.00;101625.94;5067518;28;20304;-84
2022/06/03 00:57:28;;;;;;;;;;;;;;;7.40;100.00;101624.41;5067429;28;19940;-84
2022/06/03 01:00:08;;;;;;;;;;;;;;;7.41;100.00;101620.66;5064802;28;19924;-84
2022/06/03 01:02:56;;;;;;;;;;;;;;;7.42;100.00;101617.69;5065560;28;19928;-84
2022/06/03 01:05:32;;;;;;;;;;;;;;;7.42;100.00;101625.81;5075584;28;20301;-84
2022/06/03 01:08:10;;;;;;;;;;;;;;;7.47;100.00;101617.81;5074106;28;19932;-85
2022/06/03 01:10:51;;;;;;;;;;;;;;;7.41;100.00;101628.78;5074279;28;19928;-84
2022/06/03 01:13:39;;;;;;;;;;;;;;;7.35;100.00;101625.13;5078474;28;20044;-84
2022/06/03 01:16:14;;;;;;;;;;;;;;;7.24;100.00;101623.22;5072658;28;19931;-84
2022/06/03 01:18:51;;;;;;;;;;;;;;;7.12;100.00;101629.44;5071359;28;19924;-84
2022/06/03 01:21:34;;;;;;;;;;;;;;;7.06;100.00;101629.56;5087932;28;19937;-85
2022/06/03 01:24:36;;;;;;;;;;;;;;;7.11;100.00;101635.09;5067056;28;19929;-85
2022/06/03 01:27:24;;;;;;;;;;;;;;;7.12;100.00;101629.44;5076437;28;19947;-85
2022/06/03 01:30:09;;;;;;;;;;;;;;;7.11;100.00;101632.38;5062914;28;19924;-85
2022/06/03 01:32:56;;;;;;;;;;;;;;;7.08;100.00;101638.25;5075361;28;19924;-85
2022/06/03 01:35:42;;;;;;;;;;;;;;;7.09;100.00;101635.31;5068003;28;19932;-84
2022/06/03 01:38:23;;;;;;;;;;;;;;;7.05;100.00;101638.75;5063910;28;19935;-84
2022/06/03 01:41:07;;;;;;;;;;;;;;;7.08;100.00;101630.97;5071394;28;19928;-85
2022/06/03 01:43:57;;;;;;;;;;;;;;;7.05;100.00;101636.84;5073001;28;19924;-85
2022/06/03 01:46:28;;;;;;;;;;;;;;;7.07;100.00;101634.75;5070539;28;19928;-85
2022/06/03 01:49:19;;;;;;;;;;;;;;;7.02;100.00;101641.91;5092821;28;19924;-84
2022/06/03 01:52:06;;;;;;;;;;;;;;;6.95;100.00;101640.13;5060450;28;20304;-85
2022/06/03 01:55:05;;;;;;;;;;;;;;;6.96;100.00;101636.38;5077452;28;20273;-85
2022/06/03 01:57:51;;;;;;;;;;;;;;;6.88;100.00;101627.78;5075910;28;19924;-84
2022/06/03 02:00:32;;;;;;;;;;;;;;;6.92;100.00;101626.25;5064388;28;19924;-85
2022/06/03 02:03:24;;;;;;;;;;;;;;;6.92;100.00;101626.25;5056577;28;19925;-85
2022/06/03 02:06:04;;;;;;;;;;;;;;;6.91;100.00;101630.81;5049572;28;19932;-85
2022/06/03 02:08:49;;;;;;;;;;;;;;;6.95;100.00;101629.28;5075833;28;19925;-85
2022/06/03 02:11:26;;;;;;;;;;;;;;;7.00;100.00;101620.47;5079467;28;20288;-85
2022/06/03 02:14:12;;;;;;;;;;;;;;;7.02;100.00;101625.69;5065094;28;19924;-85
2022/06/03 02:17:06;;;;;;;;;;;;;;;7.00;100.00;101623.19;5060667;28;19948;-85
2022/06/03 02:19:48;;;;;;;;;;;;;;;6.95;100.00;101618.47;5029998;28;19925;-85
2022/06/03 02:22:33;;;;;;;;;;;;;;;6.99;100.00;101626.97;5078219;28;19928;-85
2022/06/03 02:25:21;;;;;;;;;;;;;;;6.96;100.00;101633.66;5068882;28;19928;-85
2022/06/03 02:28:03;;;;;;;;;;;;;;;6.94;100.00;101630.34;5065165;28;19925;-85
2022/06/03 02:30:50;;;;;;;;;;;;;;;6.93;100.00;101631.44;5071119;28;19924;-85
2022/06/03 02:33:41;;;;;;;;;;;;;;;6.96;100.00;101632.81;5080093;28;19924;-84
2022/06/03 02:36:35;;;;;;;;;;;;;;;6.95;100.00;101631.19;5077259;28;19931;-85
2022/06/03 02:39:15;;;;;;;;;;;;;;;6.91;100.00;101628.13;5066756;28;19925;-83
2022/06/03 02:41:59;;;;;;;;;;;;;;;6.81;100.00;101625.97;5080014;28;19931;-85
2022/06/03 02:44:45;;;;;;;;;;;;;;;6.83;100.00;101630.34;5074350;28;19931;-85
2022/06/03 02:47:34;;;;;;;;;;;;;;;6.71;100.00;101628.44;5077020;28;20291;-85
2022/06/03 02:50:20;;;;;;;;;;;;;;;6.57;100.00;101635.91;5070971;28;19925;-84
2022/06/03 02:53:11;;;;;;;;;;;;;;;6.58;100.00;101634.03;5074923;28;19931;-85
2022/06/03 02:55:59;;;;;;;;;;;;;;;6.55;100.00;101629.06;5065107;28;19929;-84
2022/06/03 02:58:49;;;;;;;;;;;;;;;6.50;100.00;101628.94;5066132;28;20023;-85
2022/06/03 03:01:33;;;;;;;;;;;;;;;6.49;100.00;101636.22;5067027;28;19924;-85
2022/06/03 03:04:08;;;;;;;;;;;;;;;6.50;100.00;101634.34;5077618;28;19936;-83
2022/06/03 03:06:49;;;;;;;;;;;;;;;6.57;100.00;101632.34;5056379;28;19925;-85
2022/06/03 03:09:33;;;;;;;;;;;;;;;6.57;100.00;101633.19;5070031;28;19924;-84
2022/06/03 03:12:24;;;;;;;;;;;;;;;6.58;100.00;101639.44;5064187;28;19925;-83
2022/06/03 03:14:57;;;;;;;;;;;;;;;6.65;100.00;101642.84;5067137;28;20320;-84
2022/06/03 03:17:39;;;;;;;;;;;;;;;6.69;100.00;101643.22;5080073;28;20373;-84
2022/06/03 03:20:20;;;;;;;;;;;;;;;6.71;100.00;101639.25;5067994;28;19928;-84
2022/06/03 03:23:07;;;;;;;;;;;;;;;6.70;100.00;101642.16;5073052;28;19924;-84
2022/06/03 03:25:40;;;;;;;;;;;;;;;6.70;100.00;101643.00;5062738;28;20438;-84
2022/06/03 03:28:23;;;;;;;;;;;;;;;6.73;100.00;101647.94;5077655;28;19932;-85
2022/06/03 03:31:07;;;;;;;;;;;;;;;6.80;100.00;101639.72;5081132;28;19924;-84
2022/06/03 03:34:02;;;;;;;;;;;;;;;6.81;100.00;101633.28;5054525;28;20415;-85
2022/06/03 03:36:40;;;;;;;;;;;;;;;6.83;100.00;101641.16;5076860;28;19931;-85
2022/06/03 03:39:25;;;;;;;;;;;;;;;6.79;100.00;101640.78;5071130;28;19924;-84
2022/06/03 03:42:13;;;;;;;;;;;;;;;6.77;100.00;101648.31;5063700;28;20357;-83
2022/06/03 03:45:04;;;;;;;;;;;;;;;6.76;100.00;101646.66;5075170;28;20281;-83
2022/06/03 03:47:50;;;;;;;;;;;;;;;6.77;100.00;101646.44;5070721;28;20381;-84
2022/06/03 03:50:40;;;;;;;;;;;;;;;6.82;100.00;101651.13;5081283;28;19924;-84
2022/06/03 03:53:31;;;;;;;;;;;;;;;6.81;100.00;101647.63;5076774;28;19931;-84
2022/06/03 03:56:13;;;;;;;;;;;;;;;6.83;100.00;101646.56;5075385;28;19928;-84
2022/06/03 03:58:59;;;;;;;;;;;;;;;6.86;100.00;101641.50;5070732;28;19932;-84
2022/06/03 04:01:41;;;;;;;;;;;;;;;6.93;100.00;101650.38;5069196;28;20352;-83
2022/06/03 04:04:35;;;;;;;;;;;;;;;6.97;100.00;101645.28;5062549;28;19932;-84
2022/06/03 04:07:21;;;;;;;;;;;;;;;7.01;100.00;101642.97;5062860;28;19928;-83
2022/06/03 04:09:59;;;;;;;;;;;;;;;6.91;100.00;101641.63;5068931;28;19925;-84
2022/06/03 04:12:34;;;;;;;;;;;;;;;6.98;100.00;101641.53;5079768;28;20483;-83
2022/06/03 04:15:21;;;;;;;;;;;;;;;6.99;100.00;101643.19;5074219;28;19924;-83
2022/06/03 04:18:06;;;;;;;;;;;;;;;6.97;100.00;101653.41;5071163;28;20305;-83
2022/06/03 04:20:52;;;;;;;;;;;;;;;6.98;100.00;101657.78;5066066;28;19924;-83
2022/06/03 04:23:39;;;;;;;;;;;;;;;7.07;100.00;101652.84;5072951;28;19936;-83
2022/06/03 04:26:29;;;;;;;;;;;;;;;7.15;100.00;101655.22;5069361;28;19924;-83
2022/06/03 04:29:34;;;;;;;;;;;;;;;7.19;100.00;101663.72;5076638;28;19924;-83
2022/06/03 04:32:33;;;;;;;;;;;;;;;7.27;100.00;101663.38;5041378;28;20388;-82
2022/06/03 04:35:31;;;;;;;;;;;;;;;7.37;100.00;101660.09;5074822;28;19931;-83
2022/06/03 04:38:28;;;;;;;;;;;;;;;7.45;100.00;101659.75;5015824;28;20029;-83
2022/06/03 04:41:15;;;;;;;;;;;;;;;7.51;100.00;101658.78;5076291;28;20336;-83
2022/06/03 04:44:09;;;;;;;;;;;;;;;7.60;100.00;101657.38;5061648;28;19936;-83
2022/06/03 04:46:57;;;;;;;;;;;;;;;7.73;100.00;101656.31;5050905;28;19931;-83
2022/06/03 04:50:03;;;;;;;;;;;;;;;7.82;100.00;101654.09;5073131;28;19924;-83
2022/06/03 04:53:03;;;;;;;;;;;;;;;8.09;100.00;101662.53;5016043;28;19925;-82
2022/06/03 04:56:04;;;;;;;;;;;;;;;8.24;100.00;101669.31;5012619;28;19932;-83
2022/06/03 04:58:51;;;;;;;;;;;;;;;8.30;100.00;101663.78;5075793;28;19924;-83
2022/06/03 05:01:48;;;;;;;;;;;;;;;8.40;100.00;101659.63;5070520;28;19932;-83
2022/06/03 05:04:40;;;;;;;;;;;;;;;8.56;100.00;101656.19;5047045;28;19929;-84
2022/06/03 05:07:19;;;;;;;;;;;;;;;9.80;100.00;101660.91;5083259;28;19939;-83
2022/06/03 05:10:06;;;;;;;;;;;;;;;11.71;100.00;101650.88;5082130;28;19932;-85
2022/06/03 05:13:09;;;;;;;;;;;;;;;12.30;100.00;101643.50;5075495;28;19939;-85
2022/06/03 05:16:01;;;;;;;;;;;;;;;15.23;100.00;101635.66;5068740;28;20285;-83
2022/06/03 05:18:43;;;;;;;;;;;;;;;16.97;100.00;101635.50;5042382;28;19924;-84
2022/06/03 05:21:39;;;;;;;;;;;;;;;17.51;100.00;101633.19;5070542;28;19932;-85
2022/06/03 05:24:31;;;;;;;;;;;;;;;18.45;100.00;101616.41;5071513;28;20407;-84
2022/06/03 05:27:27;;;;;;;;;;;;;;;18.85;100.00;101613.81;5071883;28;20273;-85
2022/06/03 05:30:11;;;;;;;;;;;;;;;19.96;100.00;101615.06;5077281;28;19931;-86
2022/06/03 05:32:56;;;;;;;;;;;;;;;19.93;100.00;101628.69;5083615;28;19924;-83
2022/06/03 05:35:44;;;;;;;;;;;;;;;20.58;93.49;101613.19;5072246;28;19939;-87
2022/06/03 05:38:41;;;;;;;;;;;;;;;20.68;100.00;101604.59;5071844;28;20397;-86
2022/06/03 05:44:26;;;;;;;;;;;;;;;17.33;100.00;101617.53;5043302;28;20270;-85
2022/06/03 05:47:03;;;;;;;;;;;;;;;15.61;100.00;101627.63;5062227;28;19924;-87
2022/06/03 05:49:40;;;;;;;;;;;;;;;14.93;100.00;101627.41;5068804;28;19929;-87
2022/06/03 05:52:26;;;;;;;;;;;;;;;13.94;100.00;101628.22;5067779;28;19928;-85
2022/06/03 05:55:09;;;;;;;;;;;;;;;14.15;100.00;101628.97;5069019;28;19999;-85
2022/06/03 05:57:50;;;;;;;;;;;;;;;14.44;100.00;101631.84;5074154;28;19924;-85
2022/06/03 06:00:44;;;;;;;;;;;;;;;14.04;100.00;101632.84;5073580;28;19926;-85
2022/06/03 06:03:21;;;;;;;;;;;;;;;13.65;100.00;101628.88;5070101;28;19928;-85
2022/06/03 06:06:03;;;;;;;;;;;;;;;13.40;100.00;101630.53;5071895;28;19931;-86
2022/06/03 06:08:36;;;;;;;;;;;;;;;13.78;100.00;101621.97;5076236;28;19943;-84
2022/06/03 06:11:07;;;;;;;;;;;;;;;13.91;100.00;101626.88;5080093;28;19924;-84
2022/06/03 06:14:04;;;;;;;;;;;;;;;14.00;100.00;101626.28;5075414;28;19931;-84
2022/06/03 06:16:40;;;;;;;;;;;;;;;14.10;100.00;101624.34;5069054;28;19924;-85
2022/06/03 06:19:20;;;;;;;;;;;;;;;14.00;100.00;101613.41;5069470;28;19932;-84
2022/06/03 06:22:09;;;;;;;;;;;;;;;13.68;100.00;101609.16;5069038;28;19924;-83
2022/06/03 06:24:51;;;;;;;;;;;;;;;13.62;100.00;101607.53;5070418;28;20307;-86
2022/06/03 06:27:47;;;;;;;;;;;;;;;13.64;100.00;101602.59;5070899;28;19991;-89
2022/06/03 06:30:26;;;;;;;;;;;;;;;13.57;100.00;101608.34;5068017;28;20385;-85
2022/06/03 06:33:12;;;;;;;;;;;;;;;13.57;100.00;101605.63;5081944;28;19928;-86
2022/06/03 06:36:02;;;;;;;;;;;;;;;13.61;100.00;101601.22;5066454;28;19925;-86
2022/06/03 06:38:42;;;;;;;;;;;;;;;13.52;100.00;101611.13;5063724;28;20377;-85
2022/06/03 06:41:17;;;;;;;;;;;;;;;13.63;100.00;101611.09;5066105;28;19932;-87
2022/06/03 06:43:49;;;;;;;;;;;;;;;13.51;100.00;101608.66;5080990;28;19924;-86
2022/06/03 06:46:21;;;;;;;;;;;;;;;13.69;100.00;101602.59;5072581;28;19929;-85
2022/06/03 06:49:00;;;;;;;;;;;;;;;13.78;100.00;101614.59;5066884;28;19936;-84
2022/06/03 06:51:53;;;;;;;;;;;;;;;13.56;100.00;101611.38;5065892;28;19928;-85
2022/06/03 06:54:32;;;;;;;;;;;;;;;13.78;100.00;101614.59;5073462;28;19936;-83
2022/06/03 06:57:07;;;;;;;;;;;;;;;14.00;100.00;101618.09;5077216;28;19925;-82
2022/06/03 06:59:42;;;;;;;;;;;;;;;14.11;100.00;101616.94;5046000;28;19933;-83
2022/06/03 07:02:19;;;;;;;;;;;;;;;14.18;100.00;101611.97;5056271;28;20264;-82
2022/06/03 07:04:58;;;;;;;;;;;;;;;13.90;100.00;101613.47;5048157;28;19944;-83
2022/06/03 07:07:35;;;;;;;;;;;;;;;13.92;100.00;101612.09;5042836;28;19932;-85
2022/06/03 07:10:06;;;;;;;;;;;;;;;13.99;100.00;101595.38;5045427;28;19940;-82
2022/06/03 07:12:36;;;;;;;;;;;;;;;14.02;100.00;101604.94;5055060;28;19940;-83
2022/06/03 07:15:07;;;;;;;;;;;;;;;14.22;100.00;101609.50;5037436;28;19956;-81
2022/06/03 07:20:43;;;;;;;;;;;;;;;14.02;100.00;101603.03;5067407;28;19937;-83
2022/06/03 07:23:21;;;;;;;;;;;;;;;14.15;100.00;101600.78;5061751;28;19940;-83
2022/06/03 07:25:56;;;;;;;;;;;;;;;14.41;100.00;101596.78;5049735;28;20483;-82
2022/06/03 07:28:34;;;;;;;;;;;;;;;14.29;100.00;101605.34;5033750;28;19933;-83
2022/06/03 07:31:11;;;;;;;;;;;;;;;14.36;100.00;101602.31;5033322;28;19940;-82
2022/06/03 07:33:43;;;;;;;;;;;;;;;14.43;100.00;101605.56;5050972;28;19928;-82
2022/06/03 07:36:16;;;;;;;;;;;;;;;14.28;100.00;101603.72;5037962;28;19944;-81
2022/06/03 07:38:53;;;;;;;;;;;;;;;14.20;100.00;101607.03;5042158;28;19940;-82
2022/06/03 07:41:31;;;;;;;;;;;;;;;14.31;100.00;101605.06;5036793;28;20451;-82
2022/06/03 07:44:09;;;;;;;;;;;;;;;14.43;100.00;101602.81;5037854;28;19932;-81
2022/06/03 07:46:47;;;;;;;;;;;;;;;14.49;100.00;101598.13;5051563;28;19946;-82
2022/06/03 07:49:22;;;;;;;;;;;;;;;14.74;100.00;101604.56;5030695;28;20891;-81
2022/06/03 07:52:00;;;;;;;;;;;;;;;14.86;100.00;101606.91;5038002;28;19940;-82
2022/06/03 07:54:34;;;;;;;;;;;;;;;14.86;100.00;101593.22;5047238;28;19940;-81
2022/06/03 07:57:08;;;;;;;;;;;;;;;15.00;100.00;101598.84;5038858;28;19929;-82
2022/06/03 07:59:41;;;;;;;;;;;;;;;15.22;100.00;101598.38;5049126;28;19932;-82
2022/06/03 08:02:16;;;;;;;;;;;;;;;15.11;100.00;101592.19;5030802;28;19939;-81
2022/06/03 08:04:45;;;;;;;;;;;;;;;15.14;100.00;101589.69;5034030;28;19932;-82
2022/06/03 08:12:59;;;;;;;;;;;;;;;15.24;100.00;101579.72;5039464;28;19933;-82
2022/06/03 08:15:29;;;;;;;;;;;;;;;15.52;100.00;101577.25;5040996;28;19933;-81
2022/06/03 08:18:05;;;;;;;;;;;;;;;15.42;100.00;101578.16;5042249;28;19940;-81
2022/06/03 08:20:34;;;;;;;;;;;;;;;15.54;100.00;101580.53;5036824;28;19932;-83
2022/06/03 08:23:04;;;;;;;;;;;;;;;15.56;100.00;101579.09;5060259;28;19929;-82
2022/06/03 08:25:39;;;;;;;;;;;;;;;15.45;100.00;101583.91;5034307;28;19939;-82
2022/06/03 08:28:15;;;;;;;;;;;;;;;15.58;100.00;101578.84;5031650;28;19933;-81
2022/06/03 08:30:45;;;;;;;;;;;;;;;15.87;100.00;101570.56;5054052;28;19939;-82
2022/06/03 08:33:24;;;;;;;;;;;;;;;15.76;100.00;101567.09;5037117;28;20668;-82
2022/06/03 08:35:57;;;;;;;;;;;;;;;15.95;100.00;101571.81;5053070;28;21501;-83
2022/06/03 08:38:34;;;;;;;;;;;;;;;15.98;100.00;101571.25;5034030;28;20774;-82
2022/06/03 08:41:12;;;;;;;;;;;;;;;16.10;100.00;101574.38;5033655;28;19932;-82
2022/06/03 08:43:55;;;;;;;;;;;;;;;16.32;100.00;101575.69;5033146;28;19932;-82
2022/06/03 08:46:29;;;;;;;;;;;;;;;16.34;100.00;101576.25;5036605;28;19954;-82
2022/06/03 08:49:09;;;;;;;;;;;;;;;16.29;100.00;101576.31;5035511;28;19933;-82
2022/06/03 08:51:41;;;;;;;;;;;;;;;16.39;100.00;101580.81;5036839;28;19947;-82
2022/06/03 08:54:21;;;;;;;;;;;;;;;16.46;100.00;101570.28;5039789;28;19932;-82
2022/06/03 08:56:56;;;;;;;;;;;;;;;16.44;100.00;101567.81;5035753;28;19940;-82
2022/06/03 08:59:35;;;;;;;;;;;;;;;16.60;100.00;101564.84;5004124;28;19943;-82
2022/06/03 09:02:10;;;;;;;;;;;;;;;16.73;100.00;101558.59;5028995;28;19932;-83
2022/06/03 09:04:47;;;;;;;;;;;;;;;16.96;100.00;101576.09;5032126;28;19940;-81
2022/06/03 09:07:19;;;;;;;;;;;;;;;17.02;100.00;101570.53;5032384;28;19934;-83
2022/06/03 09:09:52;;;;;;;;;;;;;;;17.23;100.00;101580.03;5038823;28;19956;-82
2022/06/03 09:12:24;;;;;;;;;;;;;;;17.18;100.00;101577.38;5044888;28;19935;-83
2022/06/03 09:15:01;;;;;;;;;;;;;;;17.29;100.00;101573.31;5039065;28;19933;-82
2022/06/03 09:17:37;;;;;;;;;;;;;;;17.42;100.00;101563.44;5031390;28;19928;-82
2022/06/03 09:20:08;;;;;;;;;;;;;;;17.26;100.00;101570.34;5050843;28;19939;-81
2022/06/03 09:22:36;;;;;;;;;;;;;;;17.15;100.00;101567.81;5034967;28;19933;-81
2022/06/03 09:25:12;;;;;;;;;;;;;;;17.34;100.00;101570.50;5031568;28;19944;-83
2022/06/03 09:27:47;;;;;;;;;;;;;;;17.41;100.00;101563.75;5032945;28;19943;-81
2022/06/03 09:30:26;;;;;;;;;;;;;;;17.48;100.00;101573.25;5033115;28;20392;-81
2022/06/03 09:33:02;;;;;;;;;;;;;;;17.41;100.00;101558.25;5036476;28;20420;-82
2022/06/03 09:35:38;;;;;;;;;;;;;;;17.54;100.00;101565.72;5029182;28;20475;-84
2022/06/03 09:38:11;;;;;;;;;;;;;;;17.55;100.00;101561.00;5030494;28;19933;-82
2022/06/03 09:40:42;;;;;;;;;;;;;;;17.90;100.00;101564.13;5030891;28;19948;-82
2022/06/03 09:43:17;;;;;;;;;;;;;;;18.00;100.00;101562.00;5034972;28;20387;-82
2022/06/03 09:45:51;;;;;;;;;;;;;;;18.17;100.00;101557.78;5040547;28;19940;-82
2022/06/03 09:48:26;;;;;;;;;;;;;;;18.06;100.00;101562.72;5028601;28;19939;-81
2022/06/03 09:51:01;;;;;;;;;;;;;;;18.24;100.00;101562.88;5034180;28;19932;-82
2022/06/03 09:53:33;;;;;;;;;;;;;;;17.68;95.52;101562.94;5043594;28;19928;-82
2022/06/03 09:56:14;;;;;;;;;;;;;;;17.56;100.00;101551.63;5030924;28;20677;-82
2022/06/03 09:58:49;;;;;;;;;;;;;;;17.89;100.00;101554.25;5036122;28;20272;-83
2022/06/03 10:01:22;;;;;;;;;;;;;;;18.08;100.00;101545.91;5006324;28;19932;-83
2022/06/03 10:03:56;;;;;;;;;;;;;;;18.31;100.00;101550.31;5036036;28;19928;-83
2022/06/03 10:06:46;;;;;;;;;;;;;;;18.10;94.35;101540.88;5030037;28;19933;-83
2022/06/03 10:18:00;;;;;;;;;;;;;;;18.48;95.19;101537.81;5025339;28;19939;-83
2022/06/03 10:20:34;;;;;;;;;;;;;;;18.27;74.67;101527.28;5032222;28;19928;-83
2022/06/03 10:23:03;;;;;;;;;;;;;;;18.29;94.99;101529.72;5029196;28;20530;-83
2022/06/03 10:25:36;;;;;;;;;;;;;;;18.06;90.34;101526.91;5033857;28;20011;-82
2022/06/03 10:28:07;;;;;;;;;;;;;;;17.82;75.04;101521.63;5034653;28;19944;-82
2022/06/03 10:30:42;;;;;;;;;;;;;;;17.75;80.01;101521.25;5044109;28;19943;-80
2022/06/03 10:33:16;;;;;;;;;;;;;;;17.69;81.06;101523.28;5034144;28;19932;-83
2022/06/03 10:35:45;;;;;;;;;;;;;;;17.98;83.41;101513.88;5045969;28;19932;-82
2022/06/03 10:38:18;;;;;;;;;;;;;;;18.39;86.40;101515.69;5038016;28;20804;-82
2022/06/03 10:40:52;;;;;;;;;;;;;;;17.94;71.20;101513.69;5037732;28;19933;-83
2022/06/03 10:43:24;;;;;;;;;;;;;;;18.41;81.60;101509.84;5036750;28;19933;-82
2022/06/03 10:46:07;;;;;;;;;;;;;;;18.75;69.68;101505.72;5042395;28;19944;-83
2022/06/03 10:48:41;;;;;;;;;;;;;;;18.51;72.48;101504.91;5045521;28;19940;-81
2022/06/03 10:51:16;;;;;;;;;;;;;;;18.64;74.86;101499.63;5035124;28;19933;-83
2022/06/03 11:02:25;;;;;;;;;;;;;;;17.87;66.60;101501.44;5037747;28;19926;-84
2022/06/03 11:05:06;;;;;;;;;;;;;;;18.39;74.21;101501.91;5040017;28;19943;-82
2022/06/03 11:07:40;;;;;;;;;;;;;;;18.72;73.31;101493.38;5042322;28;19933;-82
2022/06/03 11:10:10;;;;;;;;;;;;;;;18.68;65.22;101495.94;5037974;28;19936;-82
2022/06/03 11:12:44;;;;;;;;;;;;;;;18.75;67.01;101487.22;5042113;28;19933;-81
2022/06/03 11:15:31;;;;;;;;;;;;;;;19.04;62.17;101480.41;5032703;28;21770;-81
2022/06/03 11:18:14;;;;;;;;;;;;;;;19.14;71.24;101480.16;5030953;28;19932;-80
2022/06/03 11:20:47;;;;;;;;;;;;;;;18.48;56.02;101475.22;5037505;28;19932;-83
2022/06/03 11:23:16;;;;;;;;;;;;;;;18.73;53.21;101475.69;5061020;28;19939;-81
2022/06/03 11:25:46;;;;;;;;;;;;;;;18.91;63.23;101475.81;5046713;28;19932;-81
2022/06/03 11:28:15;;;;;;;;;;;;;;;19.11;61.10;101477.19;5036682;28;19940;-81
2022/06/03 11:30:52;;;;;;;;;;;;;;;19.24;64.78;101470.75;5034369;28;19939;-81
2022/06/03 11:33:27;;;;;;;;;;;;;;;19.15;54.29;101458.88;5038988;28;20410;-82
2022/06/03 11:36:01;;;;;;;;;;;;;;;19.13;57.21;101456.44;5032352;28;19932;-81
2022/06/03 11:38:37;;;;;;;;;;;;;;;19.06;60.18;101463.53;5033625;28;19932;-80
2022/06/03 11:41:14;;;;;;;;;;;;;;;19.14;59.76;101462.75;5036684;28;20297;-82
2022/06/03 11:43:45;;;;;;;;;;;;;;;19.06;61.26;101461.59;5032823;28;19933;-82
2022/06/03 11:46:16;;;;;;;;;;;;;;;19.35;79.70;101463.81;5034744;28;20408;-82
2022/06/03 11:48:51;;;;;;;;;;;;;;;19.17;64.10;101451.91;5036201;28;19932;-80
2022/06/03 11:51:25;;;;;;;;;;;;;;;18.92;68.52;101456.19;5037396;28;19940;-80
2022/06/03 11:53:54;;;;;;;;;;;;;;;19.06;58.74;101449.75;5054741;28;19944;-82
2022/06/03 11:56:28;;;;;;;;;;;;;;;19.40;56.00;101445.47;5032218;28;19932;-81
2022/06/03 11:59:04;;;;;;;;;;;;;;;19.67;56.12;101442.44;5028304;28;19933;-81
2022/06/03 12:01:39;;;;;;;;;;;;;;;19.90;72.33;101434.03;5008564;28;19932;-81
2022/06/03 12:04:17;;;;;;;;;;;;;;;19.89;68.21;101424.13;5034907;28;19932;-80
2022/06/03 12:06:46;;;;;;;;;;;;;;;19.90;56.93;101427.69;5036179;28;19933;-82
2022/06/03 12:09:25;;;;;;;;;;;;;;;20.08;62.41;101423.78;5039746;28;19933;-81
2022/06/03 12:14:56;;;;;;;;;;;;;;;19.87;53.56;101415.34;5038080;28;19932;-81
2022/06/03 12:17:32;;;;;;;;;;;;;;;19.61;54.69;101415.28;5048928;28;20384;-81
2022/06/03 12:20:16;;;;;;;;;;;;;;;19.71;48.45;101410.28;5032540;28;19932;-81
2022/06/03 12:22:45;;;;;;;;;;;;;;;19.50;53.17;101410.09;5056545;28;19936;-81
2022/06/03 12:25:35;;;;;;;;;;;;;;;19.76;52.37;101409.31;5037538;28;19951;-81
2022/06/03 12:28:04;;;;;;;;;;;;;;;19.82;50.20;101415.53;5041547;28;20654;-80
2022/06/03 12:30:47;;;;;;;;;;;;;;;20.03;52.47;101405.41;5036671;28;19933;-82
2022/06/03 12:33:23;;;;;;;;;;;;;;;19.71;47.78;101395.66;5030844;28;19929;-82
2022/06/03 12:36:29;;;;;;;;;;;;;;;19.69;51.97;101397.91;5032360;28;19935;-81
2022/06/03 12:39:21;;;;;;;;;;;;;;;19.43;48.82;101395.13;5038545;28;19944;-82
2022/06/03 12:42:06;;;;;;;;;;;;;;;19.84;58.15;101391.94;5035999;28;19932;-81
2022/06/03 12:44:52;;;;;;;;;;;;;;;19.96;47.57;101380.25;5049602;28;19940;-81
2022/06/03 12:47:26;;;;;;;;;;;;;;;20.04;48.46;101384.13;5034328;28;19933;-81
2022/06/03 12:50:23;;;;;;;;;;;;;;;19.93;50.11;101380.06;5055517;28;19936;-81
2022/06/03 12:52:59;;;;;;;;;;;;;;;20.06;47.91;101376.31;5034971;28;19933;-83
2022/06/03 12:55:36;;;;;;;;;;;;;;;20.26;50.66;101385.88;5031831;28;19940;-81
2022/06/03 12:58:05;;;;;;;;;;;;;;;19.85;47.15;101367.91;5034450;28;19939;-82
2022/06/03 13:00:50;;;;;;;;;;;;;;;20.16;49.45;101375.16;5010552;28;20415;-81
2022/06/03 13:03:32;;;;;;;;;;;;;;;20.20;51.52;101374.19;5033053;28;19935;-82
2022/06/03 13:06:08;;;;;;;;;;;;;;;20.66;60.92;101362.63;5052357;28;19948;-82
2022/06/03 13:11:43;;;;;;;;;;;;;;;20.94;67.78;101356.69;5027095;28;19933;-82
2022/06/03 13:14:18;;;;;;;;;;;;;;;20.86;65.72;101353.63;5032000;28;19943;-81
2022/06/03 13:16:50;;;;;;;;;;;;;;;20.82;49.03;101346.34;5028079;28;19939;-82
2022/06/03 13:19:39;;;;;;;;;;;;;;;20.79;46.49;101349.78;5035428;28;19939;-81
2022/06/03 13:22:20;;;;;;;;;;;;;;;20.76;50.42;101351.25;5040338;28;20456;-81
2022/06/03 13:25:12;;;;;;;;;;;;;;;20.51;45.74;101339.16;5031607;28;20607;-81
2022/06/03 13:28:00;;;;;;;;;;;;;;;20.72;56.51;101342.78;5032451;28;20827;-80
2022/06/03 13:30:34;;;;;;;;;;;;;;;20.55;43.38;101338.13;5059594;28;19943;-82
2022/06/03 13:33:18;;;;;;;;;;;;;;;20.38;48.13;101339.03;5037927;28;19939;-81
2022/06/03 13:36:00;;;;;;;;;;;;;;;20.85;53.46;101334.59;5045097;28;19940;-80
2022/06/03 13:38:42;;;;;;;;;;;;;;;20.66;56.01;101335.81;5034837;28;19940;-81
2022/06/03 13:44:09;;;;;;;;;;;;;;;20.72;50.33;101333.69;5039595;28;19935;-81
2022/06/03 13:46:42;;;;;;;;;;;;;;;20.90;48.56;101339.94;5031062;28;20597;-82
2022/06/03 13:49:20;;;;;;;;;;;;;;;21.05;55.02;101331.06;5058419;28;20381;-81
2022/06/03 13:52:02;;;;;;;;;;;;;;;20.61;46.93;101335.19;5032566;28;19933;-82
2022/06/03 13:54:42;;;;;;;;;;;;;;;20.62;63.17;101323.78;5054817;28;19932;-82
2022/06/03 13:57:19;;;;;;;;;;;;;;;20.80;49.74;101315.41;5043314;28;19963;-81
2022/06/03 14:00:06;;;;;;;;;;;;;;;20.77;46.33;101318.88;5008438;28;19933;-82
2022/06/03 14:02:40;;;;;;;;;;;;;;;20.61;47.08;101313.88;5054357;28;19939;-81
2022/06/03 14:05:14;;;;;;;;;;;;;;;20.75;59.26;101316.44;5031941;28;19952;-82
2022/06/03 14:07:45;;;;;;;;;;;;;;;20.90;53.93;101323.34;5036956;28;19963;-81
2022/06/03 14:10:20;;;;;;;;;;;;;;;20.75;49.87;101321.16;5033966;28;19943;-81
2022/06/03 14:13:00;;;;;;;;;;;;;;;20.77;60.13;101321.63;5027314;28;19933;-82
2022/06/03 14:15:39;;;;;;;;;;;;;;;20.92;60.62;101331.31;5046282;28;21201;-85
2022/06/03 14:18:07;;;;;;;;;;;;;;;20.89;48.72;101328.09;5032604;28;19940;-80